createdAt,value
2023-05-02T00:01:43.947Z,14.67
2023-05-02T00:04:14.516Z,14.76
2023-05-02T00:06:46.880Z,14.81
2023-05-02T00:09:18.100Z,14.83
2023-05-02T00:11:49.626Z,14.68
2023-05-02T00:14:20.146Z,14.65
2023-05-02T00:16:52.906Z,14.61
2023-05-02T00:19:24.455Z,14.44
2023-05-02T00:21:54.720Z,14.37
2023-05-02T00:24:24.556Z,14.38
2023-05-02T00:26:54.611Z,14.34
2023-05-02T00:29:24.645Z,14.25
2023-05-02T00:31:57.213Z,14.37
2023-05-02T00:34:27.956Z,14.39
2023-05-02T00:36:57.939Z,14.38
2023-05-02T00:39:27.942Z,14.33
2023-05-02T00:42:01.641Z,14.15
2023-05-02T00:44:32.817Z,14.04
2023-05-02T00:47:07.308Z,14.08
2023-05-02T00:49:37.423Z,14.03
2023-05-02T00:52:08.098Z,13.97
2023-05-02T00:54:42.003Z,13.95
2023-05-02T00:57:12.173Z,13.84
2023-05-02T00:59:44.128Z,13.79
2023-05-02T01:02:35.890Z,13.65
2023-05-02T01:05:18.006Z,13.67
2023-05-02T01:08:03.439Z,13.69
2023-05-02T01:10:42.593Z,13.54
2023-05-02T01:13:15.803Z,13.69
2023-05-02T01:15:48.512Z,13.66
2023-05-02T01:18:24.526Z,13.69
2023-05-02T01:21:00.275Z,13.69
2023-05-02T01:23:38.722Z,13.57
2023-05-02T01:26:27.687Z,13.56
2023-05-02T01:29:05.650Z,13.47
2023-05-02T01:31:38.845Z,13.30
2023-05-02T01:34:13.613Z,13.32
2023-05-02T01:36:47.492Z,13.29
2023-05-02T01:39:23.791Z,13.37
2023-05-02T01:41:56.517Z,13.39
2023-05-02T01:44:32.143Z,13.24
2023-05-02T01:47:05.619Z,13.09
2023-05-02T01:49:37.548Z,13.23
2023-05-02T01:52:11.794Z,13.23
2023-05-02T01:54:43.895Z,13.33
2023-05-02T01:57:15.558Z,13.20
2023-05-02T01:59:54.946Z,13.16
2023-05-02T02:02:27.606Z,13.33
2023-05-02T02:04:59.460Z,13.19
2023-05-02T02:07:29.417Z,13.24
2023-05-02T02:10:00.105Z,13.18
2023-05-02T02:12:33.412Z,13.12
2023-05-02T02:15:17.077Z,13.04
2023-05-02T02:17:51.777Z,12.95
2023-05-02T02:20:22.458Z,13.01
2023-05-02T02:22:55.720Z,13.00
2023-05-02T02:25:27.165Z,12.98
2023-05-02T02:27:57.927Z,13.11
2023-05-02T02:30:31.031Z,13.17
2023-05-02T02:33:01.600Z,13.06
2023-05-02T02:35:37.118Z,13.17
2023-05-02T02:38:19.064Z,13.20
2023-05-02T02:40:56.163Z,13.24
2023-05-02T02:43:34.754Z,13.01
2023-05-02T02:46:21.931Z,12.77
2023-05-02T02:48:58.917Z,12.89
2023-05-02T02:51:36.079Z,12.80
2023-05-02T02:54:25.505Z,12.79
2023-05-02T02:57:03.006Z,12.61
2023-05-02T02:59:41.529Z,12.78
2023-05-02T03:02:18.275Z,12.82
2023-05-02T03:04:53.584Z,12.97
2023-05-02T03:07:23.552Z,12.76
2023-05-02T03:09:53.970Z,12.81
2023-05-02T03:12:26.423Z,12.83
2023-05-02T03:15:00.313Z,12.97
2023-05-02T03:17:33.899Z,12.76
2023-05-02T03:20:05.769Z,12.79
2023-05-02T03:22:36.162Z,12.63
2023-05-02T03:25:08.153Z,12.71
2023-05-02T03:27:38.615Z,12.81
2023-05-02T03:30:13.608Z,12.82
2023-05-02T03:32:46.209Z,12.80
2023-05-02T03:35:18.684Z,12.76
2023-05-02T03:37:51.187Z,12.68
2023-05-02T03:40:22.239Z,12.68
2023-05-02T03:42:52.536Z,12.76
2023-05-02T03:45:30.568Z,12.72
2023-05-02T03:48:03.694Z,12.77
2023-05-02T03:50:35.378Z,12.83
2023-05-02T03:53:06.460Z,12.64
2023-05-02T03:55:45.988Z,12.67
2023-05-02T03:58:25.475Z,12.50
2023-05-02T04:00:56.377Z,12.54
2023-05-02T04:03:30.198Z,12.58
2023-05-02T04:06:03.765Z,12.58
2023-05-02T04:08:34.135Z,12.38
2023-05-02T04:11:05.041Z,12.32
2023-05-02T04:13:35.790Z,12.46
2023-05-02T04:16:06.339Z,12.51
2023-05-02T04:18:41.494Z,12.36
2023-05-02T04:21:12.998Z,12.35
2023-05-02T04:23:43.432Z,12.43
2023-05-02T04:26:13.373Z,12.39
2023-05-02T04:28:50.237Z,12.53
2023-05-02T04:31:21.234Z,12.53
2023-05-02T04:33:54.241Z,12.65
2023-05-02T04:36:28.695Z,12.70
2023-05-02T04:38:59.021Z,12.56
2023-05-02T04:41:29.154Z,12.72
2023-05-02T04:44:03.444Z,12.84
2023-05-02T04:46:33.486Z,12.70
2023-05-02T04:49:06.208Z,12.73
2023-05-02T04:51:37.237Z,12.67
2023-05-02T04:54:07.644Z,12.59
2023-05-02T04:56:37.843Z,12.73
2023-05-02T04:59:08.133Z,12.78
2023-05-02T05:01:38.782Z,12.53
2023-05-02T05:04:13.918Z,12.72
2023-05-02T05:06:44.777Z,12.58
2023-05-02T05:09:24.451Z,12.68
2023-05-02T05:11:54.437Z,12.68
2023-05-02T05:14:25.159Z,12.68
2023-05-02T05:16:58.742Z,12.67
2023-05-02T05:19:32.575Z,12.69
2023-05-02T05:22:04.856Z,12.71
2023-05-02T05:24:35.350Z,12.43
2023-05-02T05:27:06.778Z,12.49
2023-05-02T05:29:36.793Z,12.32
2023-05-02T05:32:08.606Z,12.24
2023-05-02T05:34:41.776Z,12.21
2023-05-02T05:37:12.891Z,12.23
2023-05-02T05:39:43.719Z,12.08
2023-05-02T05:42:16.018Z,12.12
2023-05-02T05:44:49.256Z,12.31
2023-05-02T05:47:22.992Z,12.10
2023-05-02T05:49:59.993Z,12.13
2023-05-02T05:52:32.871Z,12.17
2023-05-02T05:55:05.214Z,11.96
2023-05-02T05:57:35.885Z,12.03
2023-05-02T06:00:06.159Z,11.83
2023-05-02T06:02:45.871Z,11.88
2023-05-02T06:05:26.777Z,11.66
2023-05-02T06:07:58.064Z,11.89
2023-05-02T06:10:29.448Z,11.75
2023-05-02T06:13:00.761Z,11.83
2023-05-02T06:15:37.398Z,11.75
2023-05-02T06:18:09.200Z,11.79
2023-05-02T06:20:42.111Z,11.60
2023-05-02T06:23:11.994Z,11.78
2023-05-02T06:25:42.989Z,11.74
2023-05-02T06:28:12.996Z,11.72
2023-05-02T06:30:45.045Z,11.57
2023-05-02T06:33:14.838Z,11.60
2023-05-02T06:35:54.487Z,11.23
2023-05-02T06:38:25.515Z,11.11
2023-05-02T06:40:55.979Z,10.94
2023-05-02T06:43:25.916Z,10.86
2023-05-02T06:45:57.253Z,10.84
2023-05-02T06:48:27.499Z,10.83
2023-05-02T06:51:00.504Z,10.83
2023-05-02T06:53:31.738Z,10.70
2023-05-02T06:56:03.771Z,10.46
2023-05-02T06:58:36.421Z,10.69
2023-05-02T07:01:06.899Z,10.18
2023-05-02T07:03:36.741Z,10.38
2023-05-02T07:06:10.026Z,10.34
2023-05-02T07:08:40.117Z,10.55
2023-05-02T07:11:10.895Z,10.54
2023-05-02T07:13:40.638Z,10.60
2023-05-02T07:16:11.153Z,10.81
2023-05-02T07:18:43.475Z,10.86
2023-05-02T07:21:16.480Z,10.81
2023-05-02T07:23:46.905Z,10.78
2023-05-02T07:26:20.289Z,10.76
2023-05-02T07:28:50.460Z,11.01
2023-05-02T07:31:22.243Z,11.03
2023-05-02T07:33:52.488Z,10.96
2023-05-02T07:36:25.060Z,10.71
2023-05-02T07:38:57.020Z,10.73
2023-05-02T07:41:32.158Z,10.81
2023-05-02T07:44:02.108Z,11.13
2023-05-02T07:46:32.717Z,11.14
2023-05-02T07:49:05.278Z,11.09
2023-05-02T07:51:40.091Z,11.01
2023-05-02T07:54:19.021Z,11.06
2023-05-02T07:56:50.328Z,11.10
2023-05-02T07:59:20.353Z,11.08
2023-05-02T08:01:52.002Z,10.94
2023-05-02T08:04:22.188Z,11.34
2023-05-02T08:06:55.163Z,11.37
2023-05-02T08:09:26.131Z,11.37
2023-05-02T08:11:57.456Z,11.25
2023-05-02T08:14:27.587Z,11.27
2023-05-02T08:17:03.074Z,11.15
2023-05-02T08:19:34.174Z,11.16
2023-05-02T08:22:07.521Z,11.73
2023-05-02T08:24:38.129Z,11.73
2023-05-02T08:27:08.355Z,12.06
2023-05-02T08:29:38.542Z,11.74
2023-05-02T08:32:08.950Z,12.23
2023-05-02T08:34:39.281Z,12.16
2023-05-02T08:37:15.471Z,12.41
2023-05-02T08:39:45.477Z,12.56
2023-05-02T08:42:15.642Z,12.40
2023-05-02T08:44:46.387Z,12.71
2023-05-02T08:47:19.474Z,12.65
2023-05-02T08:49:51.818Z,12.50
2023-05-02T08:52:28.910Z,12.83
2023-05-02T08:55:02.368Z,12.64
2023-05-02T08:57:35.131Z,12.13
2023-05-02T09:00:05.936Z,11.84
2023-05-02T09:02:50.586Z,12.05
2023-05-02T09:05:23.808Z,11.90
2023-05-02T09:07:56.607Z,12.21
2023-05-02T09:10:32.082Z,12.07
2023-05-02T09:13:39.678Z,12.60
2023-05-02T09:16:14.121Z,12.42
2023-05-02T09:18:46.227Z,12.31
2023-05-02T09:21:20.739Z,12.14
2023-05-02T09:23:55.992Z,12.16
2023-05-02T09:26:29.517Z,12.06
2023-05-02T09:29:02.514Z,12.18
2023-05-02T09:31:54.078Z,11.77
2023-05-02T09:34:26.349Z,11.60
2023-05-02T09:36:57.933Z,11.91
2023-05-02T09:39:32.465Z,11.84
2023-05-02T09:42:04.923Z,11.86
2023-05-02T09:44:41.573Z,11.84
2023-05-02T09:47:12.174Z,11.76
2023-05-02T09:49:43.563Z,11.92
2023-05-02T09:52:14.678Z,11.87
2023-05-02T09:54:48.428Z,12.01
2023-05-02T09:57:18.627Z,11.98
2023-05-02T09:59:58.667Z,11.78
2023-05-02T10:02:36.045Z,11.63
2023-05-02T10:05:10.844Z,11.62
2023-05-02T10:07:41.094Z,11.89
2023-05-02T10:10:18.010Z,12.29
2023-05-02T10:12:49.077Z,12.50
2023-05-02T10:15:25.022Z,12.43
2023-05-02T10:17:57.143Z,12.74
2023-05-02T10:20:32.707Z,12.39
2023-05-02T10:23:03.897Z,12.39
2023-05-02T10:25:37.078Z,12.58
2023-05-02T10:28:07.698Z,12.28
2023-05-02T10:30:39.066Z,12.17
2023-05-02T10:33:10.687Z,11.69
2023-05-02T10:35:43.072Z,11.97
2023-05-02T10:38:14.943Z,11.85
2023-05-02T10:40:56.182Z,12.37
2023-05-02T10:43:35.248Z,12.84
2023-05-02T10:46:05.980Z,12.65
2023-05-02T10:48:39.760Z,12.41
2023-05-02T10:51:14.418Z,12.33
2023-05-02T10:53:45.474Z,12.74
2023-05-02T10:56:36.365Z,13.14
2023-05-02T10:59:31.116Z,12.89
2023-05-02T11:02:01.828Z,12.74
2023-05-02T11:05:02.523Z,12.86
2023-05-02T11:07:34.048Z,12.84
2023-05-02T11:10:29.758Z,13.30
2023-05-02T11:13:04.298Z,14.04
2023-05-02T11:16:00.289Z,14.82
2023-05-02T11:19:01.527Z,15.26
2023-05-02T11:21:34.939Z,14.81
2023-05-02T11:24:35.141Z,14.31
2023-05-02T11:27:38.620Z,13.89
2023-05-02T11:30:13.887Z,13.34
2023-05-02T11:33:20.425Z,13.73
2023-05-02T11:35:51.852Z,13.73
2023-05-02T11:39:01.036Z,13.78
2023-05-02T11:41:45.390Z,13.54
2023-05-02T11:44:18.747Z,13.19
2023-05-02T11:46:52.612Z,13.73
2023-05-02T11:49:24.249Z,13.62
2023-05-02T11:51:57.488Z,13.37
2023-05-02T11:54:29.592Z,13.32
2023-05-02T11:57:02.310Z,14.19
2023-05-02T11:59:32.730Z,14.18
2023-05-02T12:02:06.100Z,14.13
2023-05-02T12:04:46.074Z,13.35
2023-05-02T12:07:18.871Z,13.44
2023-05-02T12:09:58.300Z,14.00
2023-05-02T12:12:35.611Z,14.38
2023-05-02T12:15:08.007Z,13.76
2023-05-02T12:17:46.088Z,14.44
2023-05-02T12:20:21.803Z,14.57
2023-05-02T12:22:54.108Z,15.12
2023-05-02T12:25:25.141Z,15.53
2023-05-02T12:28:05.009Z,15.85
2023-05-02T12:30:36.756Z,15.53
2023-05-02T12:33:10.165Z,15.32
2023-05-02T12:35:43.269Z,15.24
2023-05-02T12:38:18.509Z,14.64
2023-05-02T12:40:59.458Z,15.14
2023-05-02T12:43:30.100Z,14.45
2023-05-02T12:46:13.785Z,14.83
2023-05-02T12:48:47.927Z,15.11
2023-05-02T12:51:29.163Z,15.19
2023-05-02T12:57:27.914Z,15.94
2023-05-02T12:59:58.613Z,16.39
2023-05-02T13:02:29.014Z,16.66
2023-05-02T13:05:01.648Z,15.85
2023-05-02T13:07:32.362Z,15.41
2023-05-02T13:10:05.144Z,15.40
2023-05-02T13:12:38.137Z,14.79
2023-05-02T13:15:10.783Z,14.76
2023-05-02T13:17:43.231Z,14.75
2023-05-02T13:20:17.753Z,15.84
2023-05-02T13:22:47.817Z,16.34
2023-05-02T13:25:19.147Z,16.86
2023-05-02T13:28:41.020Z,17.24
2023-05-02T13:31:07.567Z,17.67
2023-05-02T13:33:49.244Z,17.92
2023-05-02T13:36:44.794Z,17.36
2023-05-02T13:40:44.045Z,17.37
2023-05-02T13:46:09.795Z,17.11
2023-05-02T13:48:55.246Z,17.29
2023-05-02T13:51:41.062Z,16.86
2023-05-02T13:54:25.542Z,16.11
2023-05-02T13:56:57.123Z,16.54
2023-05-02T13:59:27.516Z,16.75
2023-05-02T14:02:00.860Z,16.74
2023-05-02T14:04:33.092Z,16.94
2023-05-02T14:07:06.290Z,17.24
2023-05-02T14:09:37.186Z,16.13
2023-05-02T14:12:10.885Z,16.35
2023-05-02T14:14:42.278Z,17.13
2023-05-02T14:17:13.977Z,17.64
2023-05-02T14:19:46.849Z,18.17
2023-05-02T14:22:22.331Z,17.99
2023-05-02T14:24:55.034Z,17.85
2023-05-02T14:27:27.355Z,17.41
2023-05-02T14:30:04.814Z,17.25
2023-05-02T14:32:35.522Z,16.62
2023-05-02T14:35:05.912Z,17.01
2023-05-02T14:37:39.061Z,15.59
2023-05-02T14:40:11.458Z,16.23
2023-05-02T14:42:42.404Z,15.36
2023-05-02T14:45:16.304Z,14.98
2023-05-02T14:47:46.567Z,14.99
2023-05-02T14:50:16.619Z,14.62
2023-05-02T14:52:49.598Z,14.97
2023-05-02T14:55:19.997Z,14.45
2023-05-02T14:57:49.965Z,15.23
2023-05-02T15:00:21.546Z,14.99
2023-05-02T15:02:53.187Z,14.03
2023-05-02T15:05:23.661Z,13.86
2023-05-02T15:07:57.287Z,14.22
2023-05-02T15:10:27.455Z,14.81
2023-05-02T15:12:57.417Z,15.68
2023-05-02T15:15:27.855Z,15.48
2023-05-02T15:17:57.889Z,15.57
2023-05-02T15:20:28.108Z,14.52
2023-05-02T15:23:04.037Z,16.03
2023-05-02T15:25:34.994Z,16.88
2023-05-02T15:28:05.435Z,16.00
2023-05-02T15:30:36.770Z,14.94
2023-05-02T15:33:09.453Z,15.31
2023-05-02T15:35:39.939Z,15.16
2023-05-02T15:38:12.897Z,15.12
2023-05-02T15:40:43.672Z,16.85
2023-05-02T15:43:15.843Z,16.04
2023-05-02T15:45:46.414Z,14.54
2023-05-02T15:48:17.412Z,14.23
2023-05-02T15:50:47.792Z,14.05
2023-05-02T15:53:22.302Z,13.22
2023-05-02T15:55:53.241Z,13.52
2023-05-02T15:58:23.858Z,13.31
2023-05-02T16:00:55.498Z,13.71
2023-05-02T16:03:25.724Z,13.65
2023-05-02T16:05:56.466Z,13.88
2023-05-02T16:08:29.518Z,13.26
2023-05-02T16:11:01.789Z,13.49
2023-05-02T16:13:31.977Z,13.25
2023-05-02T16:16:01.930Z,13.16
2023-05-02T16:18:32.954Z,13.39
2023-05-02T16:21:03.935Z,13.11
2023-05-02T16:23:36.565Z,13.06
2023-05-02T16:26:06.869Z,13.09
2023-05-02T16:28:37.207Z,12.77
2023-05-02T16:31:11.663Z,12.43
2023-05-02T16:33:43.139Z,12.53
2023-05-02T16:36:15.050Z,12.44
2023-05-02T16:38:47.789Z,12.33
2023-05-02T16:41:17.977Z,12.36
2023-05-02T16:43:48.621Z,12.22
2023-05-02T16:46:18.908Z,12.01
2023-05-02T16:48:49.433Z,12.12
2023-05-02T16:51:20.069Z,12.32
2023-05-02T16:53:52.827Z,12.35
2023-05-02T16:56:23.444Z,12.50
2023-05-02T16:58:53.684Z,12.37
2023-05-02T17:01:24.093Z,12.27
2023-05-02T17:03:54.548Z,12.11
2023-05-02T17:06:32.682Z,12.43
2023-05-02T17:09:06.746Z,12.64
2023-05-02T17:11:37.420Z,12.38
2023-05-02T17:14:07.453Z,12.06
2023-05-02T17:16:37.332Z,12.08
2023-05-02T17:19:07.799Z,12.34
2023-05-02T17:21:38.825Z,12.19
2023-05-02T17:24:13.360Z,12.25
2023-05-02T17:26:43.859Z,11.90
2023-05-02T17:29:15.540Z,11.64
2023-05-02T17:31:46.982Z,11.75
2023-05-02T17:34:17.212Z,11.93
2023-05-02T17:36:47.408Z,11.94
2023-05-02T17:39:21.149Z,11.67
2023-05-02T17:41:51.635Z,11.64
2023-05-02T17:44:24.769Z,11.78
2023-05-02T17:46:55.339Z,11.48
2023-05-02T17:49:27.225Z,11.55
2023-05-02T17:51:57.227Z,11.61
2023-05-02T17:54:30.258Z,11.35
2023-05-02T17:57:00.251Z,11.38
2023-05-02T17:59:31.738Z,11.45
2023-05-02T18:02:04.266Z,11.40
2023-05-02T18:04:34.732Z,11.44
2023-05-02T18:07:06.288Z,11.56
2023-05-02T18:09:39.224Z,11.49
2023-05-02T18:12:27.845Z,11.47
2023-05-02T18:14:58.009Z,11.21
2023-05-02T18:17:39.503Z,11.24
2023-05-02T18:20:11.113Z,11.06
2023-05-02T18:22:42.144Z,10.98
2023-05-02T18:25:15.534Z,11.06
2023-05-02T18:27:45.622Z,10.98
2023-05-02T18:30:15.731Z,10.99
2023-05-02T18:32:46.107Z,11.07
2023-05-02T18:35:16.122Z,11.11
2023-05-02T18:37:49.376Z,10.90
2023-05-02T18:40:23.399Z,10.89
2023-05-02T18:42:53.731Z,10.90
2023-05-02T18:45:26.348Z,10.88
2023-05-02T18:47:56.826Z,10.82
2023-05-02T18:50:29.419Z,10.80
2023-05-02T18:52:59.904Z,10.74
2023-05-02T18:55:35.355Z,11.03
2023-05-02T18:58:05.595Z,11.00
2023-05-02T19:00:37.219Z,10.90
2023-05-02T19:03:09.227Z,10.91
2023-05-02T19:05:39.500Z,10.96
2023-05-02T19:08:11.083Z,10.86
2023-05-02T19:10:44.036Z,10.72
2023-05-02T19:13:16.269Z,10.83
2023-05-02T19:15:46.792Z,10.84
2023-05-02T19:18:17.430Z,10.79
2023-05-02T19:20:47.314Z,10.87
2023-05-02T19:23:20.690Z,10.62
2023-05-02T19:25:53.386Z,10.85
2023-05-02T19:28:25.693Z,10.75
2023-05-02T19:30:56.705Z,10.93
2023-05-02T19:33:27.162Z,10.84
2023-05-02T19:35:58.795Z,10.70
2023-05-02T19:38:28.902Z,10.67
2023-05-02T19:41:01.565Z,10.72
2023-05-02T19:43:32.215Z,10.67
2023-05-02T19:46:04.167Z,10.57
2023-05-02T19:48:34.775Z,10.42
2023-05-02T19:51:06.578Z,10.44
2023-05-02T19:53:40.196Z,10.43
2023-05-02T19:56:13.792Z,10.34
2023-05-02T19:58:45.391Z,10.41
2023-05-02T20:01:16.182Z,10.35
2023-05-02T20:03:46.711Z,10.19
2023-05-02T20:06:17.273Z,10.36
2023-05-02T20:08:48.179Z,10.27
2023-05-02T20:11:21.784Z,10.29
2023-05-02T20:13:53.458Z,10.38
2023-05-02T20:16:23.960Z,10.18
2023-05-02T20:18:55.632Z,10.07
2023-05-02T20:21:27.429Z,9.97
2023-05-02T20:23:57.953Z,9.91
2023-05-02T20:26:31.894Z,9.99
2023-05-02T20:29:04.858Z,10.00
2023-05-02T20:31:47.438Z,9.82
2023-05-02T20:34:18.453Z,9.70
2023-05-02T20:36:49.716Z,9.77
2023-05-02T20:39:22.023Z,9.82
2023-05-02T20:41:58.533Z,9.91
2023-05-02T20:44:35.025Z,9.79
2023-05-02T20:47:05.736Z,9.61
2023-05-02T20:49:36.965Z,9.76
2023-05-02T20:52:25.418Z,9.70
2023-05-02T20:55:02.010Z,9.71
2023-05-02T20:57:35.041Z,9.83
2023-05-02T21:00:11.906Z,9.75
2023-05-02T21:02:42.363Z,9.75
2023-05-02T21:05:12.847Z,9.84
2023-05-02T21:07:44.861Z,9.73
2023-05-02T21:10:15.764Z,9.74
2023-05-02T21:12:48.598Z,9.89
2023-05-02T21:15:21.328Z,9.78
2023-05-02T21:18:02.949Z,9.69
2023-05-02T21:20:35.422Z,9.51
2023-05-02T21:23:07.162Z,9.55
2023-05-02T21:25:37.356Z,9.34
2023-05-02T21:28:10.266Z,9.43
2023-05-02T21:30:40.574Z,9.36
2023-05-02T21:33:11.244Z,9.35
2023-05-02T21:35:43.533Z,9.27
2023-05-02T21:38:18.423Z,9.23
2023-05-02T21:40:49.220Z,9.22
2023-05-02T21:43:22.874Z,9.26
2023-05-02T21:45:53.273Z,9.21
2023-05-02T21:48:24.867Z,8.97
2023-05-02T21:50:55.101Z,9.00
2023-05-02T21:53:27.458Z,9.03
2023-05-02T21:55:58.769Z,8.99
2023-05-02T21:58:33.450Z,8.95
2023-05-02T22:01:11.316Z,8.94
2023-05-02T22:03:41.853Z,8.78
2023-05-02T22:06:11.827Z,8.87
2023-05-02T22:08:41.727Z,8.86
2023-05-02T22:11:12.156Z,9.01
2023-05-02T22:13:45.374Z,8.86
2023-05-02T22:16:16.065Z,8.83
2023-05-02T22:18:49.791Z,8.73
2023-05-02T22:21:22.288Z,8.66
2023-05-02T22:23:52.984Z,8.55
2023-05-02T22:26:23.533Z,8.45
2023-05-02T22:28:56.391Z,8.51
2023-05-02T22:31:27.211Z,8.34
2023-05-02T22:33:57.654Z,8.43
2023-05-02T22:36:28.269Z,8.34
2023-05-02T22:38:58.505Z,8.27
2023-05-02T22:41:28.349Z,8.28
2023-05-02T22:44:00.761Z,8.17
2023-05-02T22:46:31.250Z,8.21
2023-05-02T22:49:03.086Z,8.22
2023-05-02T22:51:36.508Z,8.01
2023-05-02T22:54:06.698Z,8.04
2023-05-02T22:56:39.084Z,8.04
2023-05-02T22:59:12.167Z,8.00
2023-05-02T23:01:42.335Z,7.94
2023-05-02T23:04:12.870Z,7.98
2023-05-02T23:06:43.754Z,8.00
2023-05-02T23:09:14.015Z,7.80
2023-05-02T23:11:46.550Z,7.84
2023-05-02T23:14:21.075Z,7.82
2023-05-02T23:16:54.052Z,7.82
2023-05-02T23:19:25.806Z,7.74
2023-05-02T23:21:56.021Z,7.73
2023-05-02T23:24:27.435Z,7.65
2023-05-02T23:26:58.249Z,7.63
2023-05-02T23:29:31.348Z,7.65
2023-05-02T23:32:01.700Z,7.64
2023-05-02T23:34:31.554Z,7.49
2023-05-02T23:37:01.962Z,7.54
2023-05-02T23:39:32.944Z,7.55
2023-05-02T23:42:04.976Z,7.54
2023-05-02T23:44:37.793Z,7.41
2023-05-02T23:47:08.424Z,7.45
2023-05-02T23:49:41.442Z,7.39
2023-05-02T23:52:11.690Z,7.26
2023-05-02T23:54:41.630Z,7.20
2023-05-02T23:57:12.670Z,7.21
2023-05-02T23:59:46.309Z,7.14
